Time;durP1;ratioP1;P1;durP2;ratioP2;P2;SDS_P1;SDS_P2;PMS_P1;PMS_P2;Temp;Humidity;BMP_temperature;BMP_pressure;BME280_temperature;BME280_humidity;BME280_pressure;Samples;Min_cycle;Max_cycle;Signal;HPM_P1;HPM_P2
2023/05/01 00:02:05;;;;;;;13.33;10.30;;;10.40;99.90;;;;;;5125542;27;20737;-68
2023/05/01 00:04:33;;;;;;;11.37;8.73;;;10.30;99.90;;;;;;5125942;27;20227;-68
2023/05/01 00:07:00;;;;;;;11.23;8.27;;;10.30;99.90;;;;;;5114257;27;20665;-69
2023/05/01 00:09:28;;;;;;;8.53;7.63;;;10.30;99.90;;;;;;5085144;28;20211;-69
2023/05/01 00:11:55;;;;;;;10.40;8.13;;;10.30;99.90;;;;;;5084402;28;20238;-68
2023/05/01 00:14:21;;;;;;;11.77;8.53;;;10.30;99.90;;;;;;5091186;28;20558;-68
2023/05/01 00:16:50;;;;;;;11.73;8.60;;;10.30;99.90;;;;;;5108845;28;20212;-67
2023/05/01 00:19:17;;;;;;;9.07;8.17;;;10.20;99.90;;;;;;5108715;28;20241;-68
2023/05/01 00:21:46;;;;;;;10.47;8.67;;;10.30;99.90;;;;;;5108293;28;20275;-69
2023/05/01 00:24:13;;;;;;;15.53;10.27;;;10.20;99.90;;;;;;5109122;28;20264;-68
2023/05/01 00:26:40;;;;;;;12.80;9.23;;;10.20;99.90;;;;;;5108730;28;20974;-69
2023/05/01 00:29:07;;;;;;;14.13;9.40;;;10.20;99.90;;;;;;5113538;27;20720;-68
2023/05/01 00:31:34;;;;;;;16.00;10.73;;;10.20;99.90;;;;;;5107186;27;20285;-69
2023/05/01 00:34:03;;;;;;;14.63;10.33;;;10.20;99.90;;;;;;5088655;28;20213;-70
2023/05/01 00:36:30;;;;;;;15.17;10.73;;;10.30;99.90;;;;;;5087978;28;20242;-70
2023/05/01 00:38:57;;;;;;;18.70;13.07;;;10.20;99.90;;;;;;5088615;28;20207;-69
2023/05/01 00:41:24;;;;;;;17.33;12.13;;;10.20;99.90;;;;;;5090210;28;20213;-69
2023/05/01 00:43:51;;;;;;;14.27;11.03;;;10.10;99.90;;;;;;5108554;28;20220;-69
2023/05/01 00:46:18;;;;;;;13.57;10.37;;;10.10;99.90;;;;;;5108448;27;20206;-69
2023/05/01 00:48:45;;;;;;;14.70;9.13;;;10.00;99.90;;;;;;5097566;28;20681;-69
2023/05/01 00:51:14;;;;;;;12.10;8.43;;;10.00;99.90;;;;;;5087743;28;20213;-69
2023/05/01 00:53:41;;;;;;;10.10;7.53;;;10.00;99.90;;;;;;5093556;28;20210;-69
2023/05/01 00:56:09;;;;;;;14.23;8.37;;;10.00;99.90;;;;;;5107867;27;20728;-69
2023/05/01 00:58:37;;;;;;;11.50;8.27;;;10.00;99.90;;;;;;5108692;27;20248;-69
2023/05/01 01:01:04;;;;;;;13.60;8.80;;;10.00;99.90;;;;;;5107964;28;20213;-69
2023/05/01 01:03:31;;;;;;;14.23;8.20;;;10.00;99.90;;;;;;5099622;28;20214;-68
2023/05/01 01:06:04;;;;;;;11.87;8.43;;;9.90;99.90;;;;;;5108231;28;20577;-69
2023/05/01 01:08:38;;;;;;;9.73;8.33;;;9.90;99.90;;;;;;5108405;28;20277;-69
2023/05/01 01:11:18;;;;;;;11.53;8.37;;;9.90;99.90;;;;;;5106797;28;20252;-69
2023/05/01 01:13:51;;;;;;;12.20;8.63;;;9.90;99.90;;;;;;5105771;27;20283;-69
2023/05/01 01:16:23;;;;;;;14.23;10.13;;;9.90;99.90;;;;;;5087786;28;20287;-68
2023/05/01 01:19:01;;;;;;;12.83;9.27;;;9.80;99.90;;;;;;5087940;28;20313;-68
2023/05/01 01:21:31;;;;;;;12.30;8.60;;;9.70;99.90;;;;;;5101358;28;20198;-67
2023/05/01 01:24:35;;;;;;;13.60;8.53;;;9.60;99.90;;;;;;5087670;28;20206;-67
2023/05/01 01:27:23;;;;;;;10.80;9.07;;;9.60;99.90;;;;;;5076781;28;20241;-68
2023/05/01 01:30:24;;;;;;;11.30;8.90;;;9.60;99.90;;;;;;5108461;27;20320;-67
2023/05/01 01:33:10;;;;;;;10.73;7.57;;;9.50;99.90;;;;;;5114809;27;20206;-67
2023/05/01 01:35:42;;;;;;;8.33;7.00;;;9.40;99.90;;;;;;5107696;28;20205;-67
2023/05/01 01:38:16;;;;;;;9.23;7.23;;;9.40;99.90;;;;;;5107462;28;20218;-67
2023/05/01 01:40:50;;;;;;;8.17;7.20;;;9.30;99.90;;;;;;5107574;28;20225;-67
2023/05/01 01:43:20;;;;;;;11.73;8.03;;;9.30;99.90;;;;;;5107737;28;20234;-67
2023/05/01 01:45:49;;;;;;;9.30;8.30;;;9.30;99.90;;;;;;5105690;28;20237;-67
2023/05/01 01:48:25;;;;;;;12.33;8.53;;;9.20;99.90;;;;;;5092820;28;20289;-67
2023/05/01 01:50:57;;;;;;;14.77;10.20;;;9.20;99.90;;;;;;5087269;28;20635;-67
2023/05/01 01:53:26;;;;;;;12.67;8.50;;;9.20;99.90;;;;;;5087186;28;20195;-67
2023/05/01 01:55:56;;;;;;;12.37;8.83;;;9.20;99.90;;;;;;5086972;28;20206;-67
2023/05/01 01:58:25;;;;;;;9.53;8.13;;;9.20;99.90;;;;;;5102460;28;20209;-67
2023/05/01 02:00:54;;;;;;;8.27;7.43;;;9.20;99.90;;;;;;5107323;28;20241;-69
2023/05/01 02:03:23;;;;;;;7.87;7.00;;;9.10;99.90;;;;;;5107047;28;20216;-68
2023/05/01 02:05:54;;;;;;;9.80;7.33;;;9.10;99.90;;;;;;5107064;28;20261;-68
2023/05/01 02:08:22;;;;;;;8.10;7.13;;;9.10;99.90;;;;;;5101339;28;20205;-68
2023/05/01 02:10:52;;;;;;;9.60;6.37;;;8.90;99.90;;;;;;5106774;28;20301;-68
2023/05/01 02:13:21;;;;;;;9.87;6.60;;;8.90;99.90;;;;;;5106959;28;20198;-69
2023/05/01 02:15:48;;;;;;;7.37;6.17;;;8.90;99.90;;;;;;5106579;28;20612;-69
2023/05/01 02:18:16;;;;;;;7.53;6.60;;;8.90;99.90;;;;;;5092278;28;20203;-68
2023/05/01 02:20:44;;;;;;;7.53;6.23;;;8.80;99.90;;;;;;5086693;28;20668;-68
2023/05/01 02:23:13;;;;;;;8.83;6.30;;;8.80;99.90;;;;;;5097791;28;20226;-67
2023/05/01 02:25:42;;;;;;;6.67;5.50;;;8.90;99.90;;;;;;5106528;28;20236;-67
2023/05/01 02:28:12;;;;;;;6.77;6.00;;;8.90;99.90;;;;;;5093749;27;20275;-67
2023/05/01 02:30:40;;;;;;;7.77;6.87;;;8.90;99.90;;;;;;5121389;27;20211;-68
2023/05/01 02:33:07;;;;;;;8.63;5.80;;;8.90;99.90;;;;;;5127125;27;20236;-68
2023/05/01 02:35:39;;;;;;;7.17;5.63;;;8.90;99.90;;;;;;5126832;27;20204;-67
2023/05/01 02:38:07;;;;;;;6.77;5.20;;;8.80;99.90;;;;;;5103177;27;20243;-68
2023/05/01 02:40:38;;;;;;;7.07;5.47;;;8.90;99.90;;;;;;5085811;28;20673;-67
2023/05/01 02:43:08;;;;;;;9.10;5.37;;;8.90;99.90;;;;;;5086220;28;20722;-67
2023/05/01 02:45:38;;;;;;;9.50;5.20;;;8.90;99.90;;;;;;5085622;28;20234;-67
2023/05/01 02:48:07;;;;;;;5.13;4.63;;;8.80;99.90;;;;;;5085400;28;20812;-68
2023/05/01 02:50:36;;;;;;;6.43;5.13;;;8.80;99.90;;;;;;5086993;28;20753;-69
2023/05/01 02:53:03;;;;;;;7.03;5.40;;;8.70;99.90;;;;;;5098738;28;20203;-68
2023/05/01 02:55:30;;;;;;;6.60;5.50;;;8.80;99.90;;;;;;5105586;28;20210;-68
2023/05/01 02:58:00;;;;;;;8.23;5.13;;;8.70;99.90;;;;;;5106016;28;20202;-68
2023/05/01 03:00:28;;;;;;;5.17;4.70;;;8.70;99.90;;;;;;5118477;27;20202;-68
2023/05/01 03:02:55;;;;;;;5.67;5.07;;;8.70;99.90;;;;;;5105582;28;20206;-68
2023/05/01 03:05:22;;;;;;;7.03;4.90;;;8.70;99.90;;;;;;5089716;28;20613;-68
2023/05/01 03:07:50;;;;;;;7.53;5.43;;;8.70;99.90;;;;;;5085947;28;20292;-68
2023/05/01 03:10:16;;;;;;;8.30;5.47;;;8.70;99.90;;;;;;5085358;28;20248;-68
2023/05/01 03:12:44;;;;;;;7.23;4.83;;;8.80;99.90;;;;;;5085277;28;20321;-67
2023/05/01 03:15:12;;;;;;;5.53;4.50;;;8.80;99.90;;;;;;5085000;28;20621;-68
2023/05/01 03:17:39;;;;;;;8.13;4.93;;;8.80;99.90;;;;;;5090094;28;20383;-68
2023/05/01 03:20:08;;;;;;;6.70;4.90;;;8.90;99.90;;;;;;5105561;28;20210;-67
2023/05/01 03:22:35;;;;;;;6.87;4.57;;;8.90;99.90;;;;;;5088399;28;20577;-68
2023/05/01 03:25:03;;;;;;;6.50;4.43;;;8.90;99.90;;;;;;5085315;28;20222;-68
2023/05/01 03:27:30;;;;;;;8.47;4.80;;;8.90;99.90;;;;;;5085535;28;20234;-68
2023/05/01 03:29:57;;;;;;;5.87;4.57;;;9.00;99.90;;;;;;5097022;28;20218;-68
2023/05/01 03:32:27;;;;;;;7.30;4.17;;;9.00;99.90;;;;;;5105867;28;20745;-68
2023/05/01 03:34:54;;;;;;;5.57;4.63;;;9.00;99.90;;;;;;5105954;28;20217;-69
2023/05/01 03:37:21;;;;;;;6.73;4.37;;;9.00;99.90;;;;;;5091083;28;20293;-68
2023/05/01 03:39:48;;;;;;;5.33;4.50;;;9.00;99.90;;;;;;5085309;28;20213;-68
2023/05/01 03:42:15;;;;;;;5.27;4.50;;;9.10;99.90;;;;;;5085426;28;20230;-67
2023/05/01 03:44:42;;;;;;;6.30;4.80;;;8.90;99.90;;;;;;5085382;28;20199;-68
2023/05/01 03:47:09;;;;;;;7.20;4.37;;;8.80;99.90;;;;;;5085516;28;20289;-68
2023/05/01 03:49:37;;;;;;;7.13;4.67;;;8.80;99.90;;;;;;5088715;28;20206;-67
2023/05/01 03:52:05;;;;;;;8.40;5.00;;;8.70;99.90;;;;;;5089328;28;20248;-67
2023/05/01 03:54:32;;;;;;;5.60;4.80;;;8.70;99.90;;;;;;5089261;28;20786;-68
2023/05/01 03:56:59;;;;;;;5.13;4.67;;;8.60;99.90;;;;;;5089146;28;20994;-68
2023/05/01 03:59:26;;;;;;;7.50;4.70;;;8.60;99.90;;;;;;5088755;28;20740;-69
2023/05/01 04:01:53;;;;;;;6.03;4.30;;;8.60;99.90;;;;;;5107054;28;20565;-69
2023/05/01 04:04:19;;;;;;;4.87;4.43;;;8.60;99.90;;;;;;5109192;28;20654;-69
2023/05/01 04:06:48;;;;;;;5.23;4.30;;;8.50;99.90;;;;;;5095892;28;20692;-69
2023/05/01 04:09:15;;;;;;;4.83;4.33;;;8.50;99.90;;;;;;5088790;28;20647;-69
2023/05/01 04:11:42;;;;;;;5.93;4.47;;;8.50;99.90;;;;;;5088826;28;20246;-69
2023/05/01 04:14:09;;;;;;;5.80;4.33;;;8.50;99.90;;;;;;5088734;28;20693;-69
2023/05/01 04:16:36;;;;;;;5.93;4.70;;;8.50;99.90;;;;;;5089959;28;20326;-69
2023/05/01 04:19:03;;;;;;;5.47;4.60;;;8.50;99.90;;;;;;5109402;28;20313;-69
2023/05/01 04:21:30;;;;;;;5.63;4.90;;;8.50;99.90;;;;;;5108915;28;20316;-69
2023/05/01 04:23:58;;;;;;;6.10;4.50;;;8.50;99.90;;;;;;5109340;28;20647;-69
2023/05/01 04:26:25;;;;;;;6.17;4.30;;;8.60;99.90;;;;;;5109125;28;20240;-69
2023/05/01 04:28:52;;;;;;;4.87;3.97;;;8.60;99.90;;;;;;5109316;28;20783;-69
2023/05/01 04:31:19;;;;;;;5.43;4.10;;;8.70;99.90;;;;;;5108934;28;20212;-69
2023/05/01 04:33:46;;;;;;;5.60;3.73;;;8.70;99.90;;;;;;5109475;28;20305;-69
2023/05/01 04:36:13;;;;;;;6.57;4.40;;;8.80;99.90;;;;;;5100707;27;20681;-69
2023/05/01 04:38:40;;;;;;;4.00;3.70;;;8.90;99.90;;;;;;5088950;28;20291;-67
2023/05/01 04:41:08;;;;;;;5.03;4.00;;;8.90;99.90;;;;;;5088151;28;20312;-69
2023/05/01 04:43:35;;;;;;;5.50;3.77;;;9.00;99.90;;;;;;5088572;28;20996;-68
2023/05/01 04:46:03;;;;;;;5.53;3.37;;;9.10;99.90;;;;;;5089865;28;20815;-68
2023/05/01 04:48:30;;;;;;;5.10;3.67;;;9.10;99.90;;;;;;5088457;28;20215;-68
2023/05/01 04:50:57;;;;;;;5.03;3.90;;;9.20;99.90;;;;;;5088167;28;20301;-68
2023/05/01 04:53:24;;;;;;;6.13;4.00;;;9.20;99.90;;;;;;5088303;28;20246;-68
2023/05/01 04:55:51;;;;;;;6.17;3.73;;;9.30;99.90;;;;;;5093655;28;20208;-67
2023/05/01 04:58:19;;;;;;;5.87;4.07;;;9.30;99.90;;;;;;5108209;28;21104;-67
2023/05/01 05:00:46;;;;;;;6.57;3.27;;;9.30;99.90;;;;;;5100462;28;20403;-68
2023/05/01 05:03:13;;;;;;;6.47;3.80;;;9.40;99.90;;;;;;5088254;28;20227;-67
2023/05/01 05:05:40;;;;;;;6.30;3.77;;;9.30;99.90;;;;;;5088255;28;20230;-67
2023/05/01 05:08:08;;;;;;;5.60;3.93;;;9.40;99.90;;;;;;5088386;28;20238;-67
2023/05/01 05:10:35;;;;;;;4.30;3.67;;;9.40;99.90;;;;;;5088128;28;20241;-67
2023/05/01 05:13:02;;;;;;;7.13;3.63;;;9.50;99.90;;;;;;5087717;28;20600;-67
2023/05/01 05:15:30;;;;;;;5.80;3.73;;;9.50;99.90;;;;;;5092085;28;20198;-68
2023/05/01 05:17:57;;;;;;;3.67;3.17;;;9.50;99.90;;;;;;5095821;28;20215;-68
2023/05/01 05:20:24;;;;;;;5.33;3.50;;;9.50;99.90;;;;;;5087459;28;20210;-68
2023/05/01 05:22:51;;;;;;;5.70;3.30;;;9.50;99.90;;;;;;5087406;28;20295;-68
2023/05/01 05:25:18;;;;;;;3.70;3.10;;;9.60;99.90;;;;;;5087466;28;20256;-68
2023/05/01 05:27:45;;;;;;;5.10;3.23;;;9.60;99.90;;;;;;5087541;28;20237;-68
2023/05/01 05:30:12;;;;;;;4.83;3.87;;;9.60;99.90;;;;;;5087207;28;20302;-68
2023/05/01 05:32:41;;;;;;;5.27;3.20;;;9.60;99.90;;;;;;5087245;28;20211;-67
2023/05/01 05:35:08;;;;;;;4.77;3.23;;;9.70;99.90;;;;;;5087307;28;20531;-67
2023/05/01 05:37:35;;;;;;;4.23;3.40;;;9.70;99.90;;;;;;5087381;28;20264;-67
2023/05/01 05:40:02;;;;;;;4.50;3.23;;;9.70;99.90;;;;;;5087077;28;20297;-67
2023/05/01 05:42:30;;;;;;;5.90;3.23;;;9.80;99.90;;;;;;5090770;28;20567;-67
2023/05/01 05:44:56;;;;;;;5.67;3.23;;;9.80;99.90;;;;;;5100041;27;20205;-67
2023/05/01 05:47:23;;;;;;;3.43;2.80;;;9.80;99.90;;;;;;5096648;28;20321;-67
2023/05/01 05:49:52;;;;;;;5.43;3.40;;;9.80;99.90;;;;;;5101623;28;20194;-68
2023/05/01 05:52:19;;;;;;;3.87;3.47;;;9.90;99.90;;;;;;5093755;28;20561;-68
2023/05/01 05:54:45;;;;;;;3.63;3.23;;;9.90;99.90;;;;;;5092250;28;20208;-68
2023/05/01 05:57:12;;;;;;;4.20;3.20;;;9.90;99.90;;;;;;5097425;28;20292;-68
2023/05/01 05:59:39;;;;;;;4.37;3.30;;;10.00;99.90;;;;;;5101355;28;20649;-69
2023/05/01 06:02:07;;;;;;;3.30;2.67;;;10.00;99.90;;;;;;5095301;28;20212;-68
2023/05/01 06:04:33;;;;;;;4.50;3.00;;;10.00;99.90;;;;;;5101056;28;20677;-69
2023/05/01 06:07:02;;;;;;;4.77;3.00;;;10.10;99.90;;;;;;5099538;28;20313;-68
2023/05/01 06:09:29;;;;;;;3.47;3.17;;;10.10;99.90;;;;;;5105349;28;20202;-69
2023/05/01 06:11:57;;;;;;;5.33;3.20;;;10.10;99.90;;;;;;5096715;28;20257;-68
2023/05/01 06:14:24;;;;;;;5.30;3.30;;;10.20;99.90;;;;;;5090174;28;20206;-68
2023/05/01 06:16:51;;;;;;;5.57;3.30;;;10.20;99.90;;;;;;5085563;28;20210;-68
2023/05/01 06:19:18;;;;;;;3.83;2.93;;;10.30;99.90;;;;;;5096432;28;20271;-68
2023/05/01 06:21:45;;;;;;;7.07;3.00;;;10.30;99.90;;;;;;5085095;28;20241;-68
2023/05/01 06:24:14;;;;;;;3.33;2.80;;;10.30;99.90;;;;;;5087754;28;20630;-68
2023/05/01 06:26:41;;;;;;;3.40;2.47;;;10.40;99.90;;;;;;5092039;28;20217;-68
2023/05/01 06:29:08;;;;;;;4.57;2.93;;;10.40;99.90;;;;;;5105446;28;20252;-68
2023/05/01 06:31:35;;;;;;;5.17;2.87;;;10.50;99.90;;;;;;5105192;28;20296;-69
2023/05/01 06:34:02;;;;;;;3.80;3.00;;;10.50;99.90;;;;;;5096232;28;20202;-69
2023/05/01 06:36:30;;;;;;;5.43;2.77;;;10.60;99.90;;;;;;5089211;28;20208;-69
2023/05/01 06:38:57;;;;;;;3.60;2.70;;;10.60;99.90;;;;;;5088587;28;20202;-69
2023/05/01 06:41:25;;;;;;;5.37;2.93;;;10.60;99.90;;;;;;5093905;28;20340;-69
2023/05/01 06:43:52;;;;;;;3.50;3.03;;;10.70;99.90;;;;;;5086596;28;20199;-68
2023/05/01 06:46:19;;;;;;;3.70;3.10;;;10.70;99.90;;;;;;5083825;28;20227;-69
2023/05/01 06:48:46;;;;;;;4.13;3.07;;;10.70;99.90;;;;;;5086683;28;20368;-69
2023/05/01 06:51:14;;;;;;;12.20;3.07;;;10.80;99.90;;;;;;5102124;28;20206;-69
2023/05/01 06:53:41;;;;;;;3.83;2.90;;;10.90;99.90;;;;;;5091444;28;20213;-69
2023/05/01 06:56:08;;;;;;;6.83;2.80;;;10.90;99.90;;;;;;5096774;28;20769;-69
2023/05/01 06:58:37;;;;;;;3.87;3.00;;;10.90;99.90;;;;;;5101344;28;20684;-69
2023/05/01 07:01:04;;;;;;;3.43;2.90;;;11.00;99.90;;;;;;5102484;27;20321;-69
2023/05/01 07:03:31;;;;;;;4.67;2.57;;;11.00;99.90;;;;;;5088919;28;20661;-69
2023/05/01 07:05:57;;;;;;;5.13;2.60;;;11.10;99.90;;;;;;5094159;28;20226;-69
2023/05/01 07:08:26;;;;;;;3.17;2.90;;;11.10;99.90;;;;;;5091888;28;20313;-69
2023/05/01 07:10:53;;;;;;;2.67;2.43;;;11.10;99.90;;;;;;5092119;28;20205;-69
2023/05/01 07:13:20;;;;;;;6.30;2.70;;;11.20;99.90;;;;;;5095985;28;20187;-69
2023/05/01 07:15:49;;;;;;;5.83;2.87;;;11.30;99.90;;;;;;5089831;28;20203;-69
2023/05/01 07:18:16;;;;;;;3.53;2.90;;;11.30;99.90;;;;;;5084015;28;20214;-68
2023/05/01 07:20:43;;;;;;;4.57;2.70;;;11.40;99.90;;;;;;5083998;28;20222;-68
2023/05/01 07:23:10;;;;;;;4.13;2.57;;;11.40;99.90;;;;;;5098271;28;20206;-69
2023/05/01 07:25:37;;;;;;;5.20;2.80;;;11.50;99.90;;;;;;5097637;28;20198;-69
2023/05/01 07:28:05;;;;;;;7.33;2.73;;;11.60;99.90;;;;;;5084581;28;20299;-69
2023/05/01 07:30:32;;;;;;;3.10;2.50;;;11.60;99.90;;;;;;5084257;28;20665;-69
2023/05/01 07:33:00;;;;;;;3.87;2.77;;;11.70;99.90;;;;;;5085018;28;20294;-69
2023/05/01 07:35:27;;;;;;;4.53;2.67;;;11.70;99.90;;;;;;5084932;28;20210;-69
2023/05/01 07:37:54;;;;;;;4.07;2.83;;;11.80;99.90;;;;;;5085753;28;20628;-68
2023/05/01 07:40:21;;;;;;;3.70;2.50;;;11.80;99.90;;;;;;5084927;28;20218;-69
2023/05/01 07:42:48;;;;;;;4.63;2.50;;;11.90;99.90;;;;;;5084711;28;20914;-69
2023/05/01 07:45:15;;;;;;;4.47;2.60;;;12.00;99.90;;;;;;5095405;28;20664;-69
2023/05/01 07:47:42;;;;;;;2.47;2.23;;;12.00;99.90;;;;;;5105021;28;20229;-69
2023/05/01 07:50:12;;;;;;;4.47;2.43;;;12.10;99.90;;;;;;5105038;28;20815;-69
2023/05/01 07:52:39;;;;;;;3.40;2.50;;;12.10;99.90;;;;;;5105359;28;20288;-69
2023/05/01 07:55:07;;;;;;;4.20;3.00;;;12.10;99.90;;;;;;5105241;28;20228;-69
2023/05/01 07:57:35;;;;;;;3.63;2.70;;;12.10;99.90;;;;;;5105427;28;20205;-69
2023/05/01 08:00:03;;;;;;;5.40;2.60;;;12.20;99.90;;;;;;5113941;28;20233;-69
2023/05/01 08:02:30;;;;;;;5.23;2.83;;;12.20;99.90;;;;;;5105407;28;20206;-69
2023/05/01 08:04:57;;;;;;;5.90;3.17;;;12.30;99.90;;;;;;5105486;28;20267;-69
2023/05/01 08:07:25;;;;;;;4.93;2.43;;;12.40;99.90;;;;;;5104774;28;20314;-69
2023/05/01 08:09:52;;;;;;;3.47;2.70;;;12.40;99.90;;;;;;5104903;28;20205;-69
2023/05/01 08:12:19;;;;;;;4.07;2.50;;;12.40;99.90;;;;;;5104835;28;20306;-69
2023/05/01 08:14:46;;;;;;;4.63;2.60;;;12.50;99.90;;;;;;5103389;28;20208;-69
2023/05/01 08:17:12;;;;;;;4.77;2.60;;;12.50;99.90;;;;;;5090412;28;20300;-69
2023/05/01 08:19:39;;;;;;;2.93;2.13;;;12.60;99.90;;;;;;5105171;28;20206;-69
2023/05/01 08:22:06;;;;;;;3.13;2.37;;;12.60;99.90;;;;;;5105111;28;20210;-69
2023/05/01 08:24:34;;;;;;;2.67;2.20;;;12.60;99.90;;;;;;5104991;28;20725;-69
2023/05/01 08:27:01;;;;;;;3.53;2.40;;;12.70;99.90;;;;;;5104984;28;20317;-69
2023/05/01 08:29:28;;;;;;;3.70;2.40;;;12.70;99.90;;;;;;5112922;28;20292;-69
2023/05/01 08:31:58;;;;;;;4.43;2.40;;;12.70;99.90;;;;;;5088803;27;20290;-69
2023/05/01 08:34:25;;;;;;;2.77;2.50;;;12.80;99.90;;;;;;5086616;28;20554;-69
2023/05/01 08:36:52;;;;;;;3.13;2.70;;;12.80;99.90;;;;;;5088725;28;20213;-69
2023/05/01 08:39:19;;;;;;;6.93;2.27;;;12.90;99.90;;;;;;5088416;28;20203;-69
2023/05/01 08:41:47;;;;;;;3.03;2.27;;;13.00;99.90;;;;;;5101513;28;20285;-69
2023/05/01 08:44:15;;;;;;;3.60;2.50;;;13.00;99.90;;;;;;5108904;28;20295;-69
2023/05/01 08:46:47;;;;;;;2.63;2.13;;;13.10;99.90;;;;;;5108781;28;20229;-69
2023/05/01 08:49:17;;;;;;;4.53;2.10;;;13.10;99.80;;;;;;5094277;28;20319;-69
2023/05/01 08:51:46;;;;;;;3.27;2.27;;;13.20;99.50;;;;;;5088371;28;20741;-69
2023/05/01 08:54:14;;;;;;;2.83;2.10;;;13.20;98.70;;;;;;5088384;28;20203;-69
2023/05/01 08:56:43;;;;;;;3.90;2.13;;;13.30;98.70;;;;;;5088106;28;20207;-69
2023/05/01 08:59:13;;;;;;;3.20;1.80;;;13.40;98.70;;;;;;5093025;27;20345;-69
2023/05/01 09:01:41;;;;;;;2.53;2.10;;;13.40;98.90;;;;;;5107872;28;20289;-69
2023/05/01 09:04:09;;;;;;;2.50;2.20;;;13.40;98.90;;;;;;5089471;28;20301;-69
2023/05/01 09:06:36;;;;;;;3.30;2.13;;;13.50;98.60;;;;;;5087486;28;20726;-69
2023/05/01 09:09:03;;;;;;;2.70;2.03;;;13.60;97.60;;;;;;5087465;28;20221;-69
2023/05/01 09:11:30;;;;;;;2.47;1.93;;;13.60;97.90;;;;;;5087426;28;20341;-68
2023/05/01 09:13:57;;;;;;;3.73;1.93;;;13.60;98.00;;;;;;5087932;28;20290;-69
2023/05/01 09:16:26;;;;;;;4.40;2.00;;;13.70;98.70;;;;;;5088389;28;20211;-69
2023/05/01 09:18:55;;;;;;;2.93;2.07;;;13.80;98.20;;;;;;5087844;28;20215;-69
2023/05/01 09:21:23;;;;;;;3.00;1.90;;;13.80;97.40;;;;;;5088379;28;20245;-69
2023/05/01 09:23:52;;;;;;;5.43;2.33;;;13.90;97.30;;;;;;5090711;28;20199;-69
2023/05/01 09:26:20;;;;;;;3.30;1.90;;;14.00;97.70;;;;;;5087474;28;20207;-69
2023/05/01 09:28:50;;;;;;;2.57;2.07;;;14.00;97.30;;;;;;5089267;28;20998;-69
2023/05/01 09:31:22;;;;;;;3.37;2.40;;;14.10;97.20;;;;;;5108236;28;20241;-69
2023/05/01 09:33:54;;;;;;;3.73;2.60;;;14.10;97.60;;;;;;5087417;28;20240;-69
2023/05/01 09:36:21;;;;;;;4.20;2.30;;;14.20;97.90;;;;;;5086972;28;20195;-69
2023/05/01 09:38:47;;;;;;;3.53;2.13;;;14.20;98.10;;;;;;5106862;28;20320;-68
2023/05/01 09:41:14;;;;;;;3.53;2.53;;;14.20;97.90;;;;;;5107374;27;20206;-69
2023/05/01 09:43:42;;;;;;;6.93;2.80;;;14.30;97.90;;;;;;5107650;28;20839;-69
2023/05/01 09:46:11;;;;;;;3.07;2.30;;;14.40;97.60;;;;;;5106863;28;20213;-69
2023/05/01 09:48:39;;;;;;;3.00;2.20;;;14.40;97.40;;;;;;5097050;28;20250;-69
2023/05/01 09:51:25;;;;;;;3.83;2.40;;;14.50;97.90;;;;;;5086838;28;20634;-69
2023/05/01 09:53:53;;;;;;;4.37;2.43;;;14.60;97.00;;;;;;5086967;28;20305;-69
2023/05/01 09:56:20;;;;;;;5.23;2.67;;;14.70;97.60;;;;;;5086739;28;20211;-69
2023/05/01 09:58:48;;;;;;;3.67;2.33;;;14.80;96.80;;;;;;5088318;28;20236;-70
2023/05/01 10:01:16;;;;;;;3.20;2.63;;;14.90;96.60;;;;;;5107344;28;20206;-69
2023/05/01 10:03:44;;;;;;;4.23;2.50;;;15.00;96.50;;;;;;5087945;28;20221;-69
2023/05/01 10:06:11;;;;;;;2.83;2.50;;;15.00;96.40;;;;;;5086399;28;20210;-69
2023/05/01 10:08:47;;;;;;;5.67;2.97;;;15.10;96.20;;;;;;5086701;28;20698;-69
2023/05/01 10:11:14;;;;;;;5.13;2.50;;;15.20;96.30;;;;;;5086188;28;20960;-69
2023/05/01 10:13:41;;;;;;;3.17;2.80;;;15.30;96.10;;;;;;5086479;28;20293;-69
2023/05/01 10:16:30;;;;;;;4.37;2.63;;;15.40;96.70;;;;;;5086679;28;20211;-69
2023/05/01 10:18:57;;;;;;;2.70;2.27;;;15.40;97.00;;;;;;5086447;28;20268;-69
2023/05/01 10:21:25;;;;;;;2.97;2.67;;;15.40;96.80;;;;;;5086623;28;20210;-69
2023/05/01 10:23:54;;;;;;;5.03;2.80;;;15.50;98.00;;;;;;5086375;28;20301;-69
2023/05/01 10:26:21;;;;;;;4.77;2.70;;;15.60;98.20;;;;;;5086429;28;20400;-69
2023/05/01 10:28:49;;;;;;;2.80;2.47;;;15.60;97.10;;;;;;5089942;27;20345;-69
2023/05/01 10:31:16;;;;;;;4.50;2.80;;;15.70;96.40;;;;;;5127257;27;20282;-69
2023/05/01 10:33:44;;;;;;;3.27;2.60;;;15.80;95.80;;;;;;5098971;27;20222;-69
2023/05/01 10:36:15;;;;;;;4.13;2.70;;;15.90;95.80;;;;;;5086327;28;20285;-70
2023/05/01 10:38:47;;;;;;;3.03;2.70;;;16.00;95.80;;;;;;5086338;28;20223;-69
2023/05/01 10:41:15;;;;;;;4.17;2.60;;;16.00;95.50;;;;;;5086204;28;20198;-69
2023/05/01 10:43:43;;;;;;;2.80;2.57;;;16.20;95.10;;;;;;5085992;28;20211;-69
2023/05/01 10:46:29;;;;;;;3.00;2.67;;;16.20;95.10;;;;;;5086242;28;20216;-69
2023/05/01 10:48:57;;;;;;;5.87;2.77;;;16.20;95.60;;;;;;5086105;28;20234;-69
2023/05/01 10:51:24;;;;;;;5.40;3.10;;;16.30;95.80;;;;;;5085966;28;20210;-69
2023/05/01 10:54:22;;;;;;;3.20;2.50;;;16.50;95.60;;;;;;5086274;28;20294;-69
2023/05/01 10:56:50;;;;;;;4.37;2.90;;;16.50;95.40;;;;;;5085686;28;20281;-69
2023/05/01 10:59:17;;;;;;;3.97;2.80;;;16.70;95.20;;;;;;5091920;27;20313;-69
2023/05/01 11:01:46;;;;;;;2.80;2.60;;;16.70;94.70;;;;;;5105783;28;20225;-69
2023/05/01 11:04:54;;;;;;;5.73;3.23;;;16.90;94.30;;;;;;5105595;28;20296;-69
2023/05/01 11:07:22;;;;;;;5.97;4.63;;;16.90;94.80;;;;;;5104041;27;20676;-69
2023/05/01 11:09:53;;;;;;;4.07;3.03;;;17.00;94.50;;;;;;5105593;28;20241;-69
2023/05/01 11:13:02;;;;;;;4.03;2.97;;;17.00;94.40;;;;;;5105238;28;20287;-69
2023/05/01 11:15:31;;;;;;;3.50;2.90;;;17.00;94.50;;;;;;5105896;28;20191;-69
2023/05/01 11:17:59;;;;;;;3.13;2.83;;;17.00;94.60;;;;;;5086988;28;20249;-69
2023/05/01 11:20:50;;;;;;;5.03;3.07;;;16.90;94.90;;;;;;5085351;28;20242;-69
2023/05/01 11:23:22;;;;;;;4.57;2.80;;;16.90;96.00;;;;;;5066149;28;20649;-69
2023/05/01 11:25:52;;;;;;;6.53;3.10;;;16.90;94.40;;;;;;5085858;28;20205;-69
2023/05/01 11:28:21;;;;;;;3.37;3.00;;;16.90;94.20;;;;;;5085844;28;20317;-69
2023/05/01 11:30:48;;;;;;;3.13;2.93;;;16.90;93.70;;;;;;5098719;27;20740;-69
2023/05/01 11:33:24;;;;;;;4.60;3.07;;;16.80;94.80;;;;;;5085447;28;20214;-69
2023/05/01 11:36:02;;;;;;;5.37;2.73;;;16.90;95.40;;;;;;5085554;28;20194;-69
2023/05/01 11:38:30;;;;;;;3.37;3.07;;;17.00;95.00;;;;;;5085491;28;20209;-69
2023/05/01 11:41:03;;;;;;;4.60;3.00;;;17.20;94.60;;;;;;5085018;28;20297;-69
2023/05/01 11:43:31;;;;;;;3.17;2.77;;;17.40;94.70;;;;;;5084867;28;20630;-69
2023/05/01 11:46:04;;;;;;;3.90;2.60;;;17.50;94.50;;;;;;5086175;28;20217;-69
2023/05/01 11:48:31;;;;;;;6.00;3.20;;;17.70;93.80;;;;;;5096757;28;20310;-69
2023/05/01 11:50:58;;;;;;;3.73;3.37;;;17.90;94.20;;;;;;5084974;28;20680;-69
2023/05/01 11:53:25;;;;;;;3.43;2.97;;;18.10;93.10;;;;;;5084621;28;20297;-69
2023/05/01 11:55:53;;;;;;;8.47;3.63;;;18.10;93.40;;;;;;5084988;28;20792;-69
2023/05/01 11:58:33;;;;;;;3.77;3.40;;;18.20;92.70;;;;;;5084973;28;20199;-69
2023/05/01 12:01:00;;;;;;;4.47;3.10;;;18.30;92.70;;;;;;5105092;28;20259;-69
2023/05/01 12:03:27;;;;;;;4.70;2.70;;;18.40;92.20;;;;;;5105284;28;20206;-69
2023/05/01 12:05:53;;;;;;;4.37;2.97;;;18.40;92.40;;;;;;5105213;28;20212;-69
2023/05/01 12:08:22;;;;;;;4.90;3.20;;;18.50;92.30;;;;;;5105201;28;20324;-69
2023/05/01 12:10:51;;;;;;;4.00;3.23;;;18.60;92.50;;;;;;5108564;28;20690;-70
2023/05/01 12:13:19;;;;;;;3.53;3.23;;;18.80;93.10;;;;;;5109121;28;20678;-69
2023/05/01 12:15:50;;;;;;;5.30;3.40;;;18.80;91.90;;;;;;5109180;28;20206;-67
2023/05/01 12:18:18;;;;;;;3.50;3.10;;;18.90;92.20;;;;;;5089817;28;20217;-68
2023/05/01 12:20:46;;;;;;;3.67;3.07;;;18.90;92.10;;;;;;5089021;28;20313;-70
2023/05/01 12:23:15;;;;;;;4.27;3.60;;;19.00;91.90;;;;;;5088646;28;20579;-67
2023/05/01 12:25:42;;;;;;;5.90;3.47;;;19.20;92.50;;;;;;5096719;27;20194;-67
2023/05/01 12:28:11;;;;;;;6.57;3.53;;;19.20;91.40;;;;;;5110866;27;20798;-67
2023/05/01 12:30:38;;;;;;;5.07;3.33;;;19.20;91.30;;;;;;5109115;28;20297;-67
2023/05/01 12:33:11;;;;;;;5.50;3.50;;;19.30;91.70;;;;;;5108696;28;20315;-67
2023/05/01 12:35:39;;;;;;;4.17;3.67;;;19.40;91.90;;;;;;5108960;28;20220;-68
2023/05/01 12:38:11;;;;;;;4.10;3.47;;;19.40;92.80;;;;;;5108681;28;20216;-67
2023/05/01 12:40:39;;;;;;;6.53;3.33;;;19.40;91.60;;;;;;5108614;28;20217;-67
2023/05/01 12:43:06;;;;;;;4.07;3.38;;;19.40;91.40;;;;;;5108742;28;20233;-67
2023/05/01 12:45:39;;;;;;;6.87;3.77;;;19.40;91.60;;;;;;5108857;28;20210;-67
2023/05/01 12:48:13;;;;;;;5.00;3.50;;;19.50;93.20;;;;;;5089064;28;20226;-67
2023/05/01 12:50:40;;;;;;;4.85;4.32;;;19.50;93.00;;;;;;5087871;28;20679;-67
2023/05/01 12:53:08;;;;;;;6.13;4.15;;;19.70;92.90;;;;;;5088133;28;20610;-68
2023/05/01 12:55:46;;;;;;;4.90;3.50;;;19.90;93.00;;;;;;5087856;28;20226;-67
2023/05/01 12:58:14;;;;;;;4.88;3.92;;;19.90;92.20;;;;;;5087975;28;20214;-68